This is the latest recevied weather packets stored in our database for station/object SQ9SMC-13. If no packets are shown the sender has not sent any weather packets the latest 10 day(s).
| Time | Temp. | Humidity | Pressure | Rain* | Wind** | Luminosity | Snow |
|---|---|---|---|---|---|---|---|
| 1777723204 | 23.33° C | 30% | 1025.1 hPa | 0 mm | - | 617 W/m² | - |
| 1777722905 | 23.33° C | 31% | 1025.2 hPa | 0 mm | - | 619 W/m² | - |
| 1777722603 | 22.78° C | 32% | 1025.1 hPa | 0 mm | - | 624 W/m² | - |
| 1777722304 | 23.89° C | 30% | 1025.2 hPa | 0 mm | - | 630 W/m² | - |
| 1777722002 | 23.33° C | 31% | 1025.3 hPa | 0 mm | - | 630 W/m² | - |
| 1777721704 | 22.78° C | 32% | 1025.3 hPa | 0 mm | - | 634 W/m² | - |
| 1777721402 | 22.78° C | 33% | 1025.7 hPa | 0 mm | - | 634 W/m² | - |
| 1777721103 | 22.78° C | 33% | 1025.5 hPa | 0 mm | - | 643 W/m² | - |
| 1777720802 | 23.33° C | 32% | 1025.6 hPa | 0 mm | - | 643 W/m² | - |
| 1777720503 | 23.89° C | 32% | 1025.6 hPa | 0 mm | - | 641 W/m² | - |
| 1777720203 | 22.78° C | 31% | 1025.6 hPa | 0 mm | - | 653 W/m² | - |
| 1777719903 | 23.33° C | 30% | 1025.6 hPa | 0 mm | - | 652 W/m² | - |
| 1777719605 | 22.78° C | 33% | 1025.8 hPa | 0 mm | - | 656 W/m² | - |
| 1777719304 | 23.33° C | 31% | 1025.6 hPa | 0 mm | - | 647 W/m² | - |
| 1777719003 | 22.78° C | 32% | 1025.8 hPa | 0 mm | - | 655 W/m² | - |
| 1777718703 | 22.22° C | 32% | 1026.1 hPa | 0 mm | - | 654 W/m² | - |
| 1777718402 | 22.78° C | 31% | 1026 hPa | 0 mm | - | 650 W/m² | - |
| 1777718105 | 22.22° C | 31% | 1026 hPa | 0 mm | - | 646 W/m² | - |
| 1777717803 | 22.22° C | 31% | 1025.9 hPa | 0 mm | - | 647 W/m² | - |
| 1777717502 | 22.22° C | 32% | 1026.1 hPa | 0 mm | - | 647 W/m² | - |
| 1777717203 | 22.22° C | 32% | 1026.1 hPa | 0 mm | - | 646 W/m² | - |
| 1777716904 | 21.67° C | 34% | 1026.2 hPa | 0 mm | - | 638 W/m² | - |
| 1777716604 | 21.67° C | 33% | 1026.1 hPa | 0 mm | - | 644 W/m² | - |
| 1777716303 | 21.67° C | 33% | 1026.2 hPa | 0 mm | - | 643 W/m² | - |
| 1777716004 | 22.22° C | 33% | 1026.3 hPa | 0 mm | - | 625 W/m² | - |
* Rain latest hour (hover to see other rain measurements)
** Current wind speed in m/s (hover to see current wind gust speed)